createdAt,value
2022-10-16T00:01:21.843Z,75.50
2022-10-16T00:03:51.020Z,76.18
2022-10-16T00:06:21.331Z,77.63
2022-10-16T00:08:50.452Z,78.69
2022-10-16T00:11:20.677Z,78.50
2022-10-16T00:13:49.979Z,78.67
2022-10-16T00:16:20.413Z,79.20
2022-10-16T00:18:48.863Z,79.59
2022-10-16T00:21:19.319Z,81.22
2022-10-16T00:23:47.742Z,80.70
2022-10-16T00:26:17.992Z,79.78
2022-10-16T00:28:48.808Z,80.46
2022-10-16T00:31:17.477Z,80.31
2022-10-16T00:33:47.092Z,79.46
2022-10-16T00:36:17.220Z,79.63
2022-10-16T00:38:45.340Z,79.06
2022-10-16T00:41:15.477Z,79.53
2022-10-16T00:43:46.302Z,79.88
2022-10-16T00:46:21.155Z,80.94
2022-10-16T00:48:54.168Z,80.47
2022-10-16T00:51:25.438Z,80.57
2022-10-16T00:53:54.284Z,80.47
2022-10-16T00:56:22.658Z,80.40
2022-10-16T00:58:51.043Z,79.76
2022-10-16T01:01:19.342Z,79.93
2022-10-16T01:03:47.446Z,80.32
2022-10-16T01:06:26.192Z,80.80
2022-10-16T01:09:09.075Z,81.77
2022-10-16T01:11:46.318Z,81.46
2022-10-16T01:14:21.973Z,80.35
2022-10-16T01:16:54.747Z,81.41
2022-10-16T01:19:35.269Z,81.82
2022-10-16T01:22:06.534Z,81.37
2022-10-16T01:24:40.891Z,79.99
2022-10-16T01:27:13.924Z,79.70
2022-10-16T01:29:51.685Z,80.30
2022-10-16T01:32:28.478Z,80.98
2022-10-16T01:35:01.502Z,80.58
2022-10-16T01:37:37.469Z,80.92
2022-10-16T01:40:10.626Z,80.31
2022-10-16T01:42:44.007Z,79.84
2022-10-16T01:45:15.691Z,80.62
2022-10-16T01:47:45.270Z,81.57
2022-10-16T01:50:16.571Z,79.94
2022-10-16T01:52:48.640Z,79.32
2022-10-16T01:55:21.930Z,80.63
2022-10-16T01:57:53.467Z,81.06
2022-10-16T02:00:23.954Z,82.13
2022-10-16T02:02:55.956Z,81.10
2022-10-16T02:05:29.626Z,81.21
2022-10-16T02:07:59.429Z,81.60
2022-10-16T02:10:32.763Z,80.99
2022-10-16T02:13:08.469Z,81.58
2022-10-16T02:15:36.622Z,81.59
2022-10-16T02:18:05.767Z,82.07
2022-10-16T02:20:42.481Z,82.66
2022-10-16T02:23:15.990Z,83.09
2022-10-16T02:25:48.589Z,85.01
2022-10-16T02:28:21.876Z,85.55
2022-10-16T02:30:54.647Z,84.96
2022-10-16T02:33:25.527Z,84.83
2022-10-16T02:35:54.738Z,84.45
2022-10-16T02:38:24.201Z,83.71
2022-10-16T02:40:52.719Z,83.50
2022-10-16T02:43:22.330Z,84.03
2022-10-16T02:45:50.459Z,84.54
2022-10-16T02:48:18.375Z,83.77
2022-10-16T02:50:46.381Z,83.39
2022-10-16T02:53:14.380Z,83.86
2022-10-16T02:55:43.088Z,84.74
2022-10-16T02:58:11.846Z,86.19
2022-10-16T03:00:41.362Z,85.66
2022-10-16T03:03:09.406Z,84.70
2022-10-16T03:05:37.360Z,85.39
2022-10-16T03:08:05.468Z,87.37
2022-10-16T03:10:33.506Z,86.00
2022-10-16T03:13:01.520Z,85.98
2022-10-16T03:15:30.267Z,85.54
2022-10-16T03:18:01.094Z,84.83
2022-10-16T03:20:29.268Z,85.35
2022-10-16T03:22:57.544Z,85.94
2022-10-16T03:25:25.855Z,84.86
2022-10-16T03:27:54.608Z,84.76
2022-10-16T03:30:22.549Z,83.97
2022-10-16T03:32:55.277Z,86.72
2022-10-16T03:35:25.827Z,86.15
2022-10-16T03:37:54.126Z,86.14
2022-10-16T03:40:22.461Z,85.96
2022-10-16T03:42:50.566Z,86.09
2022-10-16T03:45:18.707Z,85.50
2022-10-16T03:47:46.835Z,85.90
2022-10-16T03:50:15.007Z,85.30
2022-10-16T03:52:44.420Z,85.25
2022-10-16T03:55:12.753Z,84.21
2022-10-16T03:57:40.876Z,84.28
2022-10-16T04:00:09.822Z,84.10
2022-10-16T04:02:37.859Z,84.73
2022-10-16T04:05:06.596Z,83.97
2022-10-16T04:07:34.689Z,84.98
2022-10-16T04:10:04.679Z,84.89
2022-10-16T04:12:32.892Z,84.54
2022-10-16T04:15:01.336Z,84.22
2022-10-16T04:17:29.439Z,84.16
2022-10-16T04:19:57.645Z,84.73
2022-10-16T04:24:58.780Z,86.19
2022-10-16T04:27:29.551Z,87.42
2022-10-16T04:29:58.027Z,86.92
2022-10-16T04:32:26.447Z,86.66
2022-10-16T04:34:54.481Z,86.20
2022-10-16T04:37:26.692Z,86.57
2022-10-16T04:39:55.643Z,86.44
2022-10-16T04:42:23.928Z,87.26
2022-10-16T04:44:53.417Z,89.90
2022-10-16T04:47:21.732Z,89.46
2022-10-16T04:49:50.375Z,88.87
2022-10-16T04:52:19.983Z,87.87
2022-10-16T04:54:48.115Z,87.95
2022-10-16T04:57:16.274Z,88.75
2022-10-16T04:59:44.449Z,88.18
2022-10-16T05:02:14.055Z,86.69
2022-10-16T05:04:42.114Z,86.71
2022-10-16T05:07:10.118Z,86.60
2022-10-16T05:09:38.582Z,87.68
2022-10-16T05:12:06.829Z,87.90
2022-10-16T05:14:34.984Z,87.54
2022-10-16T05:17:03.245Z,87.24
2022-10-16T05:19:32.666Z,85.77
2022-10-16T05:22:00.970Z,85.39
2022-10-16T05:24:29.662Z,85.35
2022-10-16T05:26:58.097Z,85.79
2022-10-16T05:29:26.442Z,86.53
2022-10-16T05:31:55.581Z,85.12
2022-10-16T05:34:23.689Z,84.39
2022-10-16T05:36:53.296Z,83.55
2022-10-16T05:39:21.522Z,82.50
2022-10-16T05:41:53.447Z,82.97
2022-10-16T05:44:21.743Z,82.46
2022-10-16T05:46:50.020Z,81.07
2022-10-16T05:49:17.994Z,81.19
2022-10-16T05:51:46.175Z,81.10
2022-10-16T05:54:15.676Z,80.87
2022-10-16T05:56:43.971Z,81.19
2022-10-16T05:59:12.408Z,80.87
2022-10-16T06:01:40.421Z,80.49
2022-10-16T06:04:08.663Z,81.13
2022-10-16T06:06:37.423Z,80.18
2022-10-16T06:09:06.187Z,80.79
2022-10-16T06:11:35.969Z,80.63
2022-10-16T06:14:07.943Z,79.89
2022-10-16T06:16:37.005Z,81.13
2022-10-16T06:19:07.620Z,79.75
2022-10-16T06:21:35.913Z,80.19
2022-10-16T06:24:04.007Z,79.53
2022-10-16T06:26:33.294Z,79.40
2022-10-16T06:29:02.906Z,79.95
2022-10-16T06:31:32.694Z,79.84
2022-10-16T06:34:01.108Z,80.57
2022-10-16T06:36:29.243Z,81.11
2022-10-16T06:38:57.315Z,81.09
2022-10-16T06:41:25.742Z,82.24
2022-10-16T06:43:54.281Z,82.88
2022-10-16T06:46:25.828Z,81.68
2022-10-16T06:48:54.974Z,80.72
2022-10-16T06:51:24.689Z,80.74
2022-10-16T06:54:02.850Z,82.19
2022-10-16T06:56:32.866Z,81.93
2022-10-16T06:59:01.566Z,81.12
2022-10-16T07:01:31.571Z,80.00
2022-10-16T07:03:59.552Z,79.05
2022-10-16T07:06:29.239Z,78.91
2022-10-16T07:08:57.242Z,78.00
2022-10-16T07:11:26.579Z,78.29
2022-10-16T07:13:56.146Z,78.17
2022-10-16T07:16:26.658Z,77.58
2022-10-16T07:18:59.930Z,77.55
2022-10-16T07:21:30.173Z,77.74
2022-10-16T07:24:00.221Z,77.46
2022-10-16T07:26:31.056Z,78.07
2022-10-16T07:28:59.565Z,78.09
2022-10-16T07:31:27.637Z,78.15
2022-10-16T07:33:58.171Z,77.65
2022-10-16T07:36:26.290Z,77.35
2022-10-16T07:38:58.647Z,77.60
2022-10-16T07:41:28.935Z,75.87
2022-10-16T07:43:58.443Z,75.74
2022-10-16T07:46:26.506Z,74.78
2022-10-16T07:48:56.268Z,74.67
2022-10-16T07:51:26.645Z,74.13
2022-10-16T07:53:54.938Z,74.22
2022-10-16T07:56:23.911Z,74.21
2022-10-16T07:58:52.799Z,73.35
2022-10-16T08:01:21.024Z,72.27
2022-10-16T08:03:51.200Z,71.68
2022-10-16T08:06:26.707Z,70.64
2022-10-16T08:08:56.796Z,69.86
2022-10-16T08:11:25.243Z,69.12
2022-10-16T08:13:53.297Z,68.92
2022-10-16T08:16:21.624Z,68.50
2022-10-16T08:18:49.772Z,69.06
2022-10-16T08:21:21.737Z,68.63
2022-10-16T08:23:54.694Z,68.11
2022-10-16T08:26:26.395Z,68.22
2022-10-16T08:28:54.768Z,68.46
2022-10-16T08:31:23.223Z,68.62
2022-10-16T08:33:51.220Z,67.76
2022-10-16T08:36:20.538Z,66.45
2022-10-16T08:38:51.019Z,65.99
2022-10-16T08:41:30.106Z,66.40
2022-10-16T08:44:21.510Z,65.58
2022-10-16T08:46:58.338Z,65.84
2022-10-16T08:49:26.988Z,66.22
2022-10-16T08:51:58.399Z,65.64
2022-10-16T08:54:32.037Z,64.20
2022-10-16T08:57:10.069Z,63.07
2022-10-16T08:59:38.171Z,61.91
2022-10-16T09:02:27.167Z,60.66
2022-10-16T09:05:05.495Z,60.23
2022-10-16T09:07:41.847Z,60.47
2022-10-16T09:10:26.512Z,60.50
2022-10-16T09:13:02.448Z,60.49
2022-10-16T09:15:37.307Z,59.24
2022-10-16T09:18:14.988Z,58.40
2022-10-16T09:20:51.191Z,58.59
2022-10-16T09:23:24.457Z,57.94
2022-10-16T09:25:52.652Z,55.41
2022-10-16T09:28:21.130Z,54.88
2022-10-16T09:30:50.939Z,53.87
2022-10-16T09:33:22.720Z,53.03
2022-10-16T09:35:53.814Z,52.91
2022-10-16T09:38:29.332Z,52.82
2022-10-16T09:41:03.229Z,51.93
2022-10-16T09:43:37.498Z,52.78
2022-10-16T09:46:07.164Z,53.41
2022-10-16T09:48:40.203Z,53.12
2022-10-16T09:51:18.348Z,51.32
2022-10-16T09:53:49.122Z,50.34
2022-10-16T09:56:24.996Z,50.47
2022-10-16T09:58:54.352Z,50.03
2022-10-16T10:01:25.469Z,49.86
2022-10-16T10:04:01.971Z,50.37
2022-10-16T10:06:32.042Z,49.16
2022-10-16T10:09:08.265Z,47.89
2022-10-16T10:11:42.411Z,46.63
2022-10-16T10:14:18.970Z,45.63
2022-10-16T10:16:47.720Z,45.76
2022-10-16T10:19:19.788Z,44.91
2022-10-16T10:21:48.368Z,45.33
2022-10-16T10:24:20.033Z,45.88
2022-10-16T10:26:58.133Z,44.55
2022-10-16T10:29:36.844Z,44.89
2022-10-16T10:32:15.909Z,43.51
2022-10-16T10:35:15.317Z,44.52
2022-10-16T10:37:57.319Z,44.33
2022-10-16T10:40:40.873Z,44.06
2022-10-16T10:43:19.555Z,44.33
2022-10-16T10:45:49.532Z,44.60
2022-10-16T10:48:30.342Z,44.40
2022-10-16T10:51:04.256Z,43.69
2022-10-16T10:53:44.561Z,43.01
2022-10-16T10:56:28.680Z,44.38
2022-10-16T10:59:10.471Z,43.32
2022-10-16T11:01:50.266Z,43.90
2022-10-16T11:04:43.716Z,43.93
2022-10-16T11:07:18.575Z,44.18
2022-10-16T11:09:49.602Z,43.54
2022-10-16T11:12:22.808Z,43.33
2022-10-16T11:14:57.268Z,42.83
2022-10-16T11:17:30.810Z,42.57
2022-10-16T11:20:04.105Z,41.33
2022-10-16T11:22:37.112Z,41.71
2022-10-16T11:25:18.549Z,41.34
2022-10-16T11:27:54.400Z,40.51
2022-10-16T11:30:25.246Z,41.49
2022-10-16T11:33:03.119Z,41.43
2022-10-16T11:35:42.126Z,41.53
2022-10-16T11:38:16.775Z,41.31
2022-10-16T11:40:48.740Z,40.37
2022-10-16T11:43:24.290Z,40.03
2022-10-16T11:45:56.293Z,40.80
2022-10-16T11:48:30.193Z,40.59
2022-10-16T11:51:03.655Z,39.85
2022-10-16T11:53:47.059Z,39.97
2022-10-16T11:56:17.919Z,39.63
2022-10-16T11:58:56.816Z,39.22
2022-10-16T12:01:32.887Z,39.50
2022-10-16T12:04:23.543Z,39.35
2022-10-16T12:06:56.616Z,39.56
2022-10-16T12:09:28.359Z,39.87
2022-10-16T12:11:56.514Z,39.96
2022-10-16T12:14:57.250Z,39.89
2022-10-16T12:17:29.048Z,40.02
2022-10-16T12:20:02.910Z,39.29
2022-10-16T12:22:33.115Z,38.58
2022-10-16T12:25:02.504Z,38.81
2022-10-16T12:27:32.630Z,38.75
2022-10-16T12:30:04.452Z,40.03
2022-10-16T12:32:46.632Z,39.73
2022-10-16T12:35:22.986Z,38.76
2022-10-16T12:37:52.030Z,39.71
2022-10-16T12:40:30.208Z,39.21
2022-10-16T12:42:58.450Z,39.22
2022-10-16T12:45:32.134Z,38.68
2022-10-16T12:48:02.012Z,39.08
2022-10-16T12:50:37.624Z,38.35
2022-10-16T12:53:19.494Z,39.24
2022-10-16T12:55:58.612Z,39.19
2022-10-16T12:58:45.971Z,39.24
2022-10-16T13:01:27.972Z,38.67
2022-10-16T13:04:13.654Z,39.26
2022-10-16T13:06:51.223Z,38.46
2022-10-16T13:09:38.502Z,38.75
2022-10-16T13:12:24.651Z,38.77
2022-10-16T13:15:14.161Z,38.38
2022-10-16T13:17:50.508Z,38.47
2022-10-16T13:20:28.035Z,38.58
2022-10-16T13:23:05.265Z,38.68
2022-10-16T13:25:45.620Z,39.27
2022-10-16T13:28:15.519Z,38.54
2022-10-16T13:30:46.354Z,39.33
2022-10-16T13:33:21.653Z,38.36
2022-10-16T13:35:52.724Z,39.33
2022-10-16T13:38:22.355Z,38.57
2022-10-16T13:40:56.729Z,38.96
2022-10-16T13:43:29.387Z,39.14
2022-10-16T13:46:00.363Z,38.76
2022-10-16T13:48:30.261Z,38.80
2022-10-16T13:51:06.565Z,39.39
2022-10-16T13:53:36.864Z,38.54
2022-10-16T13:56:06.795Z,38.97
2022-10-16T13:58:35.194Z,38.40
2022-10-16T14:01:06.530Z,39.66
2022-10-16T14:03:37.801Z,39.42
2022-10-16T14:06:10.051Z,39.18
2022-10-16T14:08:38.168Z,39.85
2022-10-16T14:11:06.508Z,40.63
2022-10-16T14:13:39.541Z,40.76
2022-10-16T14:16:11.950Z,40.76
2022-10-16T14:18:42.720Z,41.05
2022-10-16T14:21:17.043Z,40.22
2022-10-16T14:23:45.666Z,41.95
2022-10-16T14:26:19.996Z,40.80
2022-10-16T14:28:49.089Z,42.39
2022-10-16T14:31:28.149Z,41.45
2022-10-16T14:33:58.389Z,41.75
2022-10-16T14:36:28.178Z,41.96
2022-10-16T14:39:02.729Z,42.06
2022-10-16T14:41:32.470Z,42.87
2022-10-16T14:44:05.024Z,42.66
2022-10-16T14:46:37.026Z,43.41
2022-10-16T14:49:18.961Z,43.40
2022-10-16T14:51:47.121Z,43.21
2022-10-16T14:54:16.134Z,43.63
2022-10-16T14:56:49.183Z,44.22
2022-10-16T14:59:19.875Z,44.17
2022-10-16T15:01:48.414Z,43.55
2022-10-16T15:04:18.841Z,44.23
2022-10-16T15:06:46.923Z,44.03
2022-10-16T15:09:15.191Z,44.26
2022-10-16T15:11:44.227Z,44.23
2022-10-16T15:16:42.870Z,44.78
2022-10-16T15:19:10.868Z,44.48
2022-10-16T15:21:40.453Z,44.78
2022-10-16T15:24:16.504Z,45.43
2022-10-16T15:26:48.061Z,46.07
2022-10-16T15:29:16.605Z,46.14
2022-10-16T15:31:44.810Z,46.00
2022-10-16T15:34:14.215Z,46.58
2022-10-16T15:36:43.691Z,46.96
2022-10-16T15:39:16.061Z,47.42
2022-10-16T15:41:44.890Z,47.68
2022-10-16T15:44:13.037Z,47.76
2022-10-16T15:46:40.951Z,46.88
2022-10-16T15:49:09.171Z,47.14
2022-10-16T15:51:40.770Z,48.07
2022-10-16T15:54:10.983Z,48.33
2022-10-16T15:56:38.981Z,47.92
2022-10-16T15:59:08.158Z,47.30
2022-10-16T16:01:37.092Z,47.38
2022-10-16T16:04:11.371Z,46.95
2022-10-16T16:06:48.974Z,47.68
2022-10-16T16:09:18.307Z,47.47
2022-10-16T16:11:46.377Z,48.16
2022-10-16T16:14:16.171Z,48.28
2022-10-16T16:16:44.854Z,47.68
2022-10-16T16:19:13.100Z,47.54
2022-10-16T16:21:41.283Z,48.13
2022-10-16T16:24:09.919Z,48.12
2022-10-16T16:26:41.007Z,48.49
2022-10-16T16:29:09.565Z,48.50
2022-10-16T16:31:37.774Z,48.52
2022-10-16T16:34:06.041Z,49.02
2022-10-16T16:36:34.545Z,49.32
2022-10-16T16:39:03.088Z,49.55
2022-10-16T16:41:32.149Z,49.65
2022-10-16T16:44:10.692Z,49.45
2022-10-16T16:46:40.472Z,49.63
2022-10-16T16:49:09.144Z,49.61
2022-10-16T16:51:39.899Z,49.05
2022-10-16T16:54:09.447Z,49.79
2022-10-16T16:56:37.660Z,50.32
2022-10-16T16:59:07.177Z,50.26
2022-10-16T17:01:35.131Z,49.94
2022-10-16T17:04:03.521Z,50.25
2022-10-16T17:06:31.774Z,50.03
2022-10-16T17:09:00.669Z,49.11
2022-10-16T17:11:29.338Z,49.88
2022-10-16T17:13:59.414Z,50.29
2022-10-16T17:16:30.713Z,50.67
2022-10-16T17:19:02.482Z,50.86
2022-10-16T17:21:33.988Z,50.88
2022-10-16T17:24:02.717Z,50.90
2022-10-16T17:26:31.362Z,50.75
2022-10-16T17:29:01.572Z,51.24
2022-10-16T17:31:35.501Z,50.20
2022-10-16T17:34:05.585Z,50.12
2022-10-16T17:36:35.489Z,51.26
2022-10-16T17:39:06.075Z,50.64
2022-10-16T17:41:34.756Z,50.76
2022-10-16T17:44:02.728Z,51.33
2022-10-16T17:46:36.966Z,52.81
2022-10-16T17:49:08.362Z,56.38
2022-10-16T17:51:36.654Z,57.83
2022-10-16T17:54:04.875Z,58.12
2022-10-16T17:56:33.054Z,58.05
2022-10-16T17:59:03.258Z,56.02
2022-10-16T18:01:35.453Z,55.26
2022-10-16T18:04:07.369Z,55.13
2022-10-16T18:06:35.739Z,54.36
2022-10-16T18:09:05.196Z,54.48
2022-10-16T18:11:33.592Z,55.38
2022-10-16T18:14:01.947Z,56.11
2022-10-16T18:16:33.445Z,56.29
2022-10-16T18:19:02.414Z,56.00
2022-10-16T18:21:30.448Z,55.78
2022-10-16T18:24:01.426Z,56.43
2022-10-16T18:26:30.036Z,56.87
2022-10-16T18:29:00.681Z,56.90
2022-10-16T18:31:30.820Z,56.95
2022-10-16T18:34:00.473Z,56.98
2022-10-16T18:36:30.921Z,56.69
2022-10-16T18:39:00.087Z,55.86
2022-10-16T18:41:29.339Z,54.74
2022-10-16T18:43:57.701Z,53.31
2022-10-16T18:46:27.253Z,53.22
2022-10-16T18:48:57.055Z,52.33
2022-10-16T18:51:29.405Z,51.50
2022-10-16T18:54:00.207Z,51.49
2022-10-16T18:56:32.691Z,52.94
2022-10-16T18:59:02.921Z,53.30
2022-10-16T19:01:34.333Z,52.62
2022-10-16T19:04:04.989Z,54.91
2022-10-16T19:06:38.104Z,54.71
2022-10-16T19:09:07.558Z,55.49
2022-10-16T19:11:37.957Z,55.31
2022-10-16T19:14:09.473Z,55.75
2022-10-16T19:16:38.765Z,55.01
2022-10-16T19:19:08.482Z,55.68
2022-10-16T19:21:40.865Z,56.04
2022-10-16T19:24:09.870Z,57.29
2022-10-16T19:26:41.196Z,57.43
2022-10-16T19:29:11.048Z,57.58
2022-10-16T19:31:39.592Z,58.10
2022-10-16T19:34:09.961Z,58.18
2022-10-16T19:36:40.926Z,58.06
2022-10-16T19:39:13.896Z,57.86
2022-10-16T19:41:42.254Z,58.31
2022-10-16T19:44:12.736Z,57.70
2022-10-16T19:46:40.823Z,58.07
2022-10-16T19:49:10.709Z,58.39
2022-10-16T19:51:41.169Z,59.05
2022-10-16T19:54:14.147Z,58.94
2022-10-16T19:56:42.942Z,59.13
2022-10-16T19:59:13.192Z,59.36
2022-10-16T20:01:41.636Z,59.81
2022-10-16T20:04:09.701Z,59.98
2022-10-16T20:06:39.518Z,60.21
2022-10-16T20:09:07.757Z,60.71
2022-10-16T20:11:36.979Z,61.58
2022-10-16T20:14:05.702Z,61.95
2022-10-16T20:16:34.076Z,61.68
2022-10-16T20:19:02.421Z,61.47
2022-10-16T20:21:33.025Z,62.28
2022-10-16T20:24:04.441Z,62.29
2022-10-16T20:26:32.635Z,62.49
2022-10-16T20:29:00.847Z,62.87
2022-10-16T20:31:30.563Z,63.25
2022-10-16T20:34:03.439Z,62.91
2022-10-16T20:36:31.907Z,62.46
2022-10-16T20:38:59.962Z,63.71
2022-10-16T20:41:29.677Z,63.46
2022-10-16T20:43:57.697Z,64.54
2022-10-16T20:46:28.416Z,65.42
2022-10-16T20:49:06.076Z,64.21
2022-10-16T20:51:39.802Z,63.71
2022-10-16T20:54:08.697Z,62.51
2022-10-16T20:56:38.646Z,63.88
2022-10-16T20:59:07.498Z,63.58
2022-10-16T21:01:36.946Z,63.88
2022-10-16T21:04:07.494Z,64.12
2022-10-16T21:06:37.704Z,64.94
2022-10-16T21:09:07.009Z,63.56
2022-10-16T21:11:38.532Z,64.67
2022-10-16T21:14:08.855Z,65.40
2022-10-16T21:16:36.964Z,65.53
2022-10-16T21:19:06.286Z,65.45
2022-10-16T21:21:38.167Z,65.95
2022-10-16T21:24:12.033Z,64.99
2022-10-16T21:26:44.820Z,65.40
2022-10-16T21:29:13.495Z,66.87
2022-10-16T21:31:42.758Z,66.19
2022-10-16T21:34:10.874Z,66.92
2022-10-16T21:36:41.299Z,66.84
2022-10-16T21:39:11.394Z,66.11
2022-10-16T21:41:39.660Z,65.44
2022-10-16T21:44:09.618Z,65.60
2022-10-16T21:46:39.284Z,65.98
2022-10-16T21:49:11.245Z,65.93
2022-10-16T21:51:41.726Z,66.66
2022-10-16T21:54:12.456Z,66.81
2022-10-16T21:56:40.912Z,66.86
2022-10-16T21:59:12.756Z,67.50
2022-10-16T22:01:41.883Z,69.12
2022-10-16T22:04:11.450Z,70.48
2022-10-16T22:06:40.327Z,70.18
2022-10-16T22:09:08.759Z,69.28
2022-10-16T22:11:39.104Z,68.98
2022-10-16T22:14:09.216Z,69.05
2022-10-16T22:16:39.464Z,69.82
2022-10-16T22:19:08.514Z,69.61
2022-10-16T22:21:40.417Z,72.22
2022-10-16T22:24:09.212Z,72.86
2022-10-16T22:26:38.176Z,71.97
2022-10-16T22:29:07.181Z,72.09
2022-10-16T22:31:36.166Z,74.10
2022-10-16T22:34:07.173Z,72.54
2022-10-16T22:36:35.750Z,71.70
2022-10-16T22:39:04.566Z,72.40
2022-10-16T22:41:33.377Z,71.97
2022-10-16T22:44:01.410Z,72.42
2022-10-16T22:46:31.709Z,71.66
2022-10-16T22:49:00.383Z,72.50
2022-10-16T22:51:30.258Z,73.87
2022-10-16T22:54:00.538Z,73.22
2022-10-16T22:56:29.102Z,73.22
2022-10-16T22:58:57.271Z,73.25
2022-10-16T23:01:28.790Z,73.95
2022-10-16T23:03:57.232Z,73.27
2022-10-16T23:06:25.609Z,72.48
2022-10-16T23:08:56.489Z,73.41
2022-10-16T23:11:25.507Z,73.82
2022-10-16T23:13:53.698Z,72.90
2022-10-16T23:16:24.077Z,73.40
2022-10-16T23:18:52.316Z,74.95
2022-10-16T23:21:23.203Z,74.44
2022-10-16T23:23:51.997Z,74.55
2022-10-16T23:26:23.182Z,74.84
2022-10-16T23:28:51.995Z,74.67
2022-10-16T23:31:21.434Z,74.92
2022-10-16T23:33:49.847Z,75.46
2022-10-16T23:36:19.469Z,74.91
2022-10-16T23:38:48.802Z,74.94
2022-10-16T23:41:18.596Z,75.95
2022-10-16T23:43:48.786Z,75.78
2022-10-16T23:46:18.512Z,75.92
2022-10-16T23:48:46.952Z,76.07
2022-10-16T23:51:15.773Z,76.42
2022-10-16T23:53:44.267Z,75.92
2022-10-16T23:56:12.528Z,75.93
2022-10-16T23:58:40.803Z,77.17
